Time;durP1;ratioP1;P1;durP2;ratioP2;P2;SDS_P1;SDS_P2;PMS_P1;PMS_P2;Temp;Humidity;BMP_temperature;BMP_pressure;BME280_temperature;BME280_humidity;BME280_pressure;Samples;Min_cycle;Max_cycle;Signal;HPM_P1;HPM_P2
2023/01/29 00:02:04;;;;;;;;;;;-2.10;99.90;;;;;;5050085;28;20044;-65
2023/01/29 00:04:31;;;;;;;44.90;22.75;;;-2.10;99.90;;;;;;5050198;28;19923;-65
2023/01/29 00:06:58;;;;;;;46.13;23.65;;;-2.10;99.90;;;;;;5048343;28;20039;-65
2023/01/29 00:09:24;;;;;;;;;;;-2.10;99.90;;;;;;5030661;28;20043;-66
2023/01/29 00:11:51;;;;;;;44.28;22.38;;;-2.10;99.90;;;;;;5049278;28;20043;-66
2023/01/29 00:14:18;;;;;;;;;;;-2.10;99.90;;;;;;5053039;28;20160;-64
2023/01/29 00:16:44;;;;;;;43.90;21.30;;;-2.10;99.90;;;;;;5052002;28;20142;-65
2023/01/29 00:19:11;;;;;;;;;;;-2.10;99.90;;;;;;5049533;28;20147;-65
2023/01/29 00:21:38;;;;;;;50.28;25.27;;;-2.10;99.90;;;;;;5049779;28;20261;-64
2023/01/29 00:24:05;;;;;;;44.75;23.23;;;-2.10;99.90;;;;;;5048974;28;20055;-68
2023/01/29 00:26:32;;;;;;;45.38;23.48;;;-2.10;99.90;;;;;;5050996;28;20160;-68
2023/01/29 00:29:01;;;;;;;52.72;24.88;;;-2.00;99.90;;;;;;5029504;28;20553;-67
2023/01/29 00:31:28;;;;;;;45.42;23.80;;;-2.10;99.90;;;;;;5047954;28;20605;-64
2023/01/29 00:33:56;;;;;;;43.25;22.17;;;-2.10;99.90;;;;;;5049220;28;20043;-67
2023/01/29 00:36:24;;;;;;;43.28;22.60;;;-2.10;99.90;;;;;;5048793;28;20055;-66
2023/01/29 00:38:59;;;;;;;40.55;20.30;;;-2.10;99.90;;;;;;5047327;28;20215;-68
2023/01/29 00:47:03;;;;;;;46.83;23.15;;;-2.20;99.90;;;;;;5049430;28;20043;-67
2023/01/29 00:49:30;;;;;;;44.97;24.10;;;-2.10;99.90;;;;;;5038338;28;20033;-68
2023/01/29 00:54:42;;;;;;;44.67;21.67;;;-2.10;99.90;;;;;;5049254;28;20596;-65
2023/01/29 00:57:09;;;;;;;;;;;-2.10;99.90;;;;;;5050521;28;20311;-68
2023/01/29 00:59:36;;;;;;;44.13;20.97;;;-2.10;99.90;;;;;;5046845;28;19947;-64
2023/01/29 01:04:48;;;;;;;42.13;21.25;;;-2.10;99.90;;;;;;5036488;28;20055;-66
2023/01/29 01:07:16;;;;;;;44.25;24.02;;;-2.10;99.90;;;;;;5047424;28;20557;-66
2023/01/29 01:12:28;;;;;;;48.55;24.55;;;-2.10;99.90;;;;;;5053102;28;20458;-67
2023/01/29 01:14:56;;;;;;;48.60;25.55;;;-2.10;99.90;;;;;;5053446;28;20591;-66
2023/01/29 01:17:23;;;;;;;56.47;28.42;;;-2.10;99.90;;;;;;5052769;28;20287;-65
2023/01/29 01:19:50;;;;;;;61.95;29.33;;;-2.10;99.90;;;;;;5040108;28;20498;-65
2023/01/29 01:22:16;;;;;;;60.25;28.75;;;-2.10;99.90;;;;;;5028694;28;20044;-65
2023/01/29 01:24:43;;;;;;;62.25;30.88;;;-2.00;99.90;;;;;;5041365;28;20477;-65
2023/01/29 01:27:11;;;;;;;58.95;30.50;;;-2.00;99.90;;;;;;5040670;28;20054;-68
2023/01/29 01:29:37;;;;;;;59.75;29.17;;;-1.90;99.90;;;;;;5053010;28;20139;-65
2023/01/29 01:32:05;;;;;;;57.72;29.38;;;-1.90;99.90;;;;;;5040777;28;20137;-67
2023/01/29 01:34:32;;;;;;;55.63;28.77;;;-1.90;99.90;;;;;;5052374;28;20557;-67
2023/01/29 01:36:59;;;;;;;57.83;29.23;;;-1.90;99.90;;;;;;5033540;28;20064;-66
2023/01/29 01:39:26;;;;;;;;;;;-1.80;99.90;;;;;;5052019;28;20071;-66
2023/01/29 01:41:53;;;;;;;61.30;28.83;;;-1.80;99.90;;;;;;5051874;28;19931;-67
2023/01/29 01:44:57;;;;;;;58.58;29.20;;;-1.80;99.90;;;;;;5051247;28;20052;-65
2023/01/29 01:47:46;;;;;;;60.88;29.15;;;-1.80;99.90;;;;;;5053062;28;20044;-65
2023/01/29 01:50:28;;;;;;;62.30;29.75;;;-1.80;99.90;;;;;;5051902;28;20557;-67
2023/01/29 01:53:04;;;;;;;59.90;28.45;;;-1.80;99.90;;;;;;5032385;28;20036;-65
2023/01/29 01:55:34;;;;;;;51.03;28.80;;;-1.80;99.90;;;;;;5051975;28;20499;-64
2023/01/29 01:58:13;;;;;;;54.05;28.02;;;-1.70;99.90;;;;;;5031837;28;20048;-68
2023/01/29 02:00:41;;;;;;;55.20;28.38;;;-1.80;99.90;;;;;;5033410;28;20058;-66
2023/01/29 02:11:46;;;;;;;59.85;27.35;;;-1.80;99.90;;;;;;5051378;28;20058;-66
2023/01/29 02:14:13;;;;;;;57.47;28.98;;;-1.80;99.90;;;;;;5040645;28;20101;-65
2023/01/29 02:16:40;;;;;;;54.08;26.15;;;-1.90;99.90;;;;;;5051766;28;20576;-64
2023/01/29 02:19:12;;;;;;;;;;;-1.80;99.90;;;;;;5048079;28;20311;-67
2023/01/29 02:21:48;;;;;;;57.33;26.85;;;-1.80;99.90;;;;;;5040392;28;20405;-65
2023/01/29 02:24:44;;;;;;;59.15;28.30;;;-1.90;99.90;;;;;;5031312;28;20044;-67
2023/01/29 02:27:37;;;;;;;62.13;28.85;;;-1.90;99.90;;;;;;5052705;28;20244;-66
2023/01/29 02:30:39;;;;;;;53.65;27.38;;;-1.80;99.90;;;;;;5047554;28;20054;-63
2023/01/29 02:33:47;;;;;;;57.10;27.92;;;-1.90;99.90;;;;;;4987347;28;20090;-66
2023/01/29 02:36:36;;;;;;;59.77;27.13;;;-1.90;99.90;;;;;;5015840;28;20455;-65
2023/01/29 02:39:05;;;;;;;59.85;27.25;;;-1.80;99.90;;;;;;5031752;28;20462;-65
2023/01/29 02:41:54;;;;;;;49.38;25.58;;;-1.80;99.90;;;;;;5051035;28;20060;-66
2023/01/29 02:44:49;;;;;;;59.35;26.67;;;-1.80;99.90;;;;;;5033654;28;20298;-65
2023/01/29 02:47:28;;;;;;;53.42;25.83;;;-1.80;99.90;;;;;;5048806;28;20580;-66
2023/01/29 02:50:07;;;;;;;53.28;28.45;;;-1.80;99.90;;;;;;5031300;28;20121;-68
2023/01/29 02:52:48;;;;;;;53.85;26.60;;;-1.80;99.90;;;;;;5050784;28;20035;-67
2023/01/29 02:55:40;;;;;;;56.10;25.75;;;-1.80;99.90;;;;;;5034959;28;20169;-67
2023/01/29 02:58:14;;;;;;;50.22;26.42;;;-1.80;99.90;;;;;;5031490;28;20185;-65
2023/01/29 03:00:45;;;;;;;48.55;24.05;;;-1.80;99.90;;;;;;5051856;28;20040;-67
2023/01/29 03:03:24;;;;;;;50.33;25.75;;;-1.80;99.90;;;;;;5031729;28;20210;-66
2023/01/29 03:05:57;;;;;;;48.08;24.33;;;-1.80;99.90;;;;;;5052134;28;20393;-66
2023/01/29 03:08:41;;;;;;;52.75;25.90;;;-1.80;99.90;;;;;;5032890;28;20435;-66
2023/01/29 03:11:14;;;;;;;52.85;27.23;;;-1.80;99.90;;;;;;5032220;28;20046;-65
2023/01/29 03:14:12;;;;;;;50.58;25.48;;;-1.80;99.90;;;;;;5030550;28;20094;-66
2023/01/29 03:16:48;;;;;;;52.23;25.67;;;-1.80;99.90;;;;;;5032387;28;20167;-65
2023/01/29 03:19:20;;;;;;;56.22;27.20;;;-1.80;99.90;;;;;;5015540;28;20059;-66
2023/01/29 03:21:54;;;;;;;47.13;24.73;;;-1.80;99.90;;;;;;5029818;28;20059;-65
2023/01/29 03:33:44;;;;;;;48.10;24.83;;;-1.80;99.90;;;;;;5030682;28;20590;-65
2023/01/29 03:36:17;;;;;;;53.35;25.88;;;-1.80;99.90;;;;;;5051578;28;20947;-66
2023/01/29 03:38:44;;;;;;;49.78;24.73;;;-1.80;99.90;;;;;;5049184;28;20058;-66
2023/01/29 03:41:31;;;;;;;49.33;26.02;;;-1.80;99.90;;;;;;5030727;28;20051;-65
2023/01/29 03:44:23;;;;;;;47.83;23.88;;;-1.80;99.90;;;;;;5030058;28;20051;-66
2023/01/29 03:47:23;;;;;;;43.13;22.48;;;-1.80;99.90;;;;;;5030001;28;20587;-66
2023/01/29 03:50:01;;;;;;;43.95;21.65;;;-1.80;99.90;;;;;;5022414;28;20051;-65
2023/01/29 03:52:50;;;;;;;42.85;22.83;;;-1.80;99.90;;;;;;5029561;28;20053;-66
2023/01/29 03:55:33;;;;;;;45.80;22.88;;;-1.80;99.90;;;;;;5051352;28;20410;-65
2023/01/29 03:58:07;;;;;;;47.15;24.85;;;-1.80;99.90;;;;;;5029914;28;20297;-65
2023/01/29 04:00:43;;;;;;;50.85;24.10;;;-1.80;99.90;;;;;;5048044;28;20397;-65
2023/01/29 04:03:20;;;;;;;45.97;22.58;;;-1.80;99.90;;;;;;5029933;28;20056;-65
2023/01/29 04:06:08;;;;;;;44.13;23.77;;;-1.80;99.90;;;;;;5029996;28;20311;-66
2023/01/29 04:08:44;;;;;;;44.88;23.17;;;-1.90;99.90;;;;;;5032162;28;20120;-68
2023/01/29 04:11:15;;;;;;;44.35;21.13;;;-1.90;99.90;;;;;;5030652;28;20047;-64
2023/01/29 04:13:44;;;;;;;42.28;22.02;;;-1.90;99.90;;;;;;5047069;28;20070;-67
2023/01/29 04:16:20;;;;;;;42.47;21.35;;;-1.90;99.90;;;;;;5030569;28;20067;-67
2023/01/29 04:18:55;;;;;;;43.15;21.63;;;-1.90;99.90;;;;;;5026149;28;20105;-65
2023/01/29 04:21:30;;;;;;;39.25;21.23;;;-1.90;99.90;;;;;;5036915;28;20048;-65
2023/01/29 04:23:58;;;;;;;41.13;22.85;;;-1.90;99.90;;;;;;5029006;28;20048;-64
2023/01/29 04:26:53;;;;;;;37.35;19.80;;;-1.90;99.90;;;;;;5027593;28;20180;-65
2023/01/29 04:29:37;;;;;;;42.13;22.58;;;-1.90;99.90;;;;;;5043377;28;20048;-65
2023/01/29 04:32:17;;;;;;;34.17;19.02;;;-2.00;99.90;;;;;;5041615;28;20040;-65
2023/01/29 04:35:14;;;;;;;37.08;20.52;;;-2.00;99.90;;;;;;5047009;28;20521;-65
2023/01/29 04:37:58;;;;;;;40.35;21.35;;;-2.00;99.90;;;;;;5037075;28;20048;-65
2023/01/29 04:40:46;;;;;;;41.17;20.17;;;-2.10;99.90;;;;;;5030859;28;20044;-65
2023/01/29 04:43:16;;;;;;;;;;;-2.10;99.90;;;;;;5046700;28;20357;-64
2023/01/29 04:46:00;;;;;;;36.60;17.63;;;-2.10;99.90;;;;;;5048427;28;20878;-65
2023/01/29 04:48:44;;;;;;;35.17;17.60;;;-2.10;99.90;;;;;;5029781;28;20349;-65
2023/01/29 04:52:02;;;;;;;36.47;18.80;;;-2.10;99.90;;;;;;5051056;28;20040;-65
2023/01/29 04:54:32;;;;;;;36.25;20.23;;;-2.10;99.90;;;;;;5034162;28;20135;-65
2023/01/29 04:57:17;;;;;;;38.70;18.73;;;-2.20;99.90;;;;;;5047559;28;20522;-64
2023/01/29 04:59:54;;;;;;;35.83;19.13;;;-2.10;99.90;;;;;;5049313;28;20147;-67
2023/01/29 05:02:23;;;;;;;35.85;20.02;;;-2.10;99.90;;;;;;5047792;28;20622;-65
2023/01/29 05:04:51;;;;;;;38.00;21.35;;;-2.10;99.90;;;;;;5046898;28;20040;-67
2023/01/29 05:07:20;;;;;;;39.20;20.83;;;-2.10;99.90;;;;;;5049970;28;20552;-66
2023/01/29 05:09:48;;;;;;;35.42;18.48;;;-2.10;99.90;;;;;;5046757;28;20510;-64
2023/01/29 05:12:16;;;;;;;33.30;18.02;;;-2.10;99.90;;;;;;5048497;28;20337;-64
2023/01/29 05:14:45;;;;;;;34.05;18.98;;;-2.10;99.90;;;;;;5049147;28;20420;-66
2023/01/29 05:17:18;;;;;;;38.83;19.67;;;-2.10;99.90;;;;;;5050127;28;20993;-63
2023/01/29 05:19:45;;;;;;;36.50;19.27;;;-2.00;99.90;;;;;;5049256;28;20040;-66
2023/01/29 05:22:15;;;;;;;39.85;20.27;;;-2.10;99.90;;;;;;5048200;28;20037;-66
2023/01/29 05:24:43;;;;;;;44.47;24.05;;;-2.10;99.90;;;;;;5029060;28;20068;-65
2023/01/29 05:30:10;;;;;;;41.28;22.33;;;-2.10;99.90;;;;;;5047540;28;20117;-66
2023/01/29 05:32:38;;;;;;;40.88;21.90;;;-2.10;99.90;;;;;;5050273;28;20256;-67
2023/01/29 05:35:06;;;;;;;41.17;19.52;;;-2.10;99.90;;;;;;5048380;28;20039;-66
2023/01/29 05:37:32;;;;;;;33.63;18.65;;;-2.10;99.90;;;;;;5028086;28;20525;-68
2023/01/29 05:39:59;;;;;;;;;;;-2.10;99.90;;;;;;5049713;28;20452;-65
2023/01/29 05:42:26;;;;;;;41.17;22.20;;;-2.10;99.90;;;;;;5035716;28;19923;-65
2023/01/29 05:44:53;;;;;;;38.58;20.05;;;-2.10;99.90;;;;;;5047618;28;20052;-63
2023/01/29 05:47:20;;;;;;;;;;;-2.10;99.90;;;;;;5048235;28;20040;-67
2023/01/29 05:49:46;;;;;;;42.00;21.90;;;-2.10;99.90;;;;;;5047703;28;19924;-66
2023/01/29 05:52:13;;;;;;;;;;;-2.20;99.90;;;;;;5044777;28;20492;-66
2023/01/29 05:54:39;;;;;;;40.10;20.77;;;-2.10;99.90;;;;;;5047869;28;20459;-67
2023/01/29 05:57:06;;;;;;;;;;;-2.10;99.90;;;;;;5050339;28;20541;-67
2023/01/29 05:59:33;;;;;;;38.35;19.42;;;-2.20;99.90;;;;;;5051932;28;19938;-67
2023/01/29 06:01:59;;;;;;;40.20;20.95;;;-2.20;99.90;;;;;;5049949;28;20232;-66
2023/01/29 06:04:26;;;;;;;47.40;23.85;;;-2.20;99.90;;;;;;5054462;28;20404;-65
2023/01/29 06:06:53;;;;;;;;;;;-2.20;99.90;;;;;;5051739;28;20040;-65
2023/01/29 06:09:20;;;;;;;44.20;21.10;;;-2.20;99.90;;;;;;5052625;28;19971;-67
2023/01/29 06:11:46;;;;;;;;;;;-2.20;99.90;;;;;;5051956;28;20186;-64
2023/01/29 06:14:13;;;;;;;40.22;22.30;;;-2.20;99.90;;;;;;5051444;28;19967;-67
2023/01/29 06:16:39;;;;;;;;;;;-2.20;99.90;;;;;;5051815;28;20722;-67
2023/01/29 06:19:06;;;;;;;47.72;22.90;;;-2.10;99.90;;;;;;5051088;28;19932;-68
2023/01/29 06:21:33;;;;;;;;;;;-2.10;99.90;;;;;;5052266;28;20055;-67
2023/01/29 06:24:00;;;;;;;43.28;22.02;;;-2.10;99.90;;;;;;5050187;28;19923;-67
2023/01/29 06:26:26;;;;;;;46.13;23.10;;;-2.10;99.90;;;;;;5051892;28;20238;-66
2023/01/29 06:28:53;;;;;;;46.70;22.65;;;-2.10;99.90;;;;;;5050681;28;20601;-67
2023/01/29 06:31:20;;;;;;;43.05;22.23;;;-2.20;99.90;;;;;;5034887;28;20510;-67
2023/01/29 06:34:05;;;;;;;49.97;25.08;;;-2.10;99.90;;;;;;5051951;28;20037;-66
2023/01/29 06:36:32;;;;;;;51.13;24.60;;;-2.20;99.90;;;;;;5049570;28;20047;-65
2023/01/29 06:38:58;;;;;;;45.70;23.85;;;-2.10;99.90;;;;;;5040113;28;20044;-63
2023/01/29 06:41:25;;;;;;;46.92;24.77;;;-2.10;99.90;;;;;;5049457;28;20355;-67
2023/01/29 06:43:52;;;;;;;;;;;-2.20;99.90;;;;;;5050873;28;20563;-67
2023/01/29 06:46:19;;;;;;;41.38;21.98;;;-2.20;99.90;;;;;;5054879;28;20009;-67
2023/01/29 06:48:45;;;;;;;45.15;23.60;;;-2.20;99.90;;;;;;5050464;28;20074;-65
2023/01/29 06:51:12;;;;;;;43.28;23.55;;;-2.10;99.90;;;;;;5031340;28;20078;-65
2023/01/29 06:53:39;;;;;;;;;;;-2.20;99.90;;;;;;5051474;28;20052;-65
2023/01/29 06:56:06;;;;;;;43.55;22.30;;;-2.20;99.90;;;;;;5049183;28;20226;-65
2023/01/29 06:58:37;;;;;;;47.33;22.23;;;-2.10;99.90;;;;;;5052310;28;20562;-67
2023/01/29 07:01:09;;;;;;;51.50;26.13;;;-2.20;99.90;;;;;;5053431;28;20063;-65
2023/01/29 07:03:36;;;;;;;43.00;21.90;;;-2.20;99.90;;;;;;5052704;28;20070;-62
2023/01/29 07:06:04;;;;;;;43.70;22.98;;;-2.20;99.90;;;;;;5050511;28;20072;-64
2023/01/29 07:08:30;;;;;;;41.15;21.60;;;-2.10;99.90;;;;;;5047799;28;20040;-65
2023/01/29 07:11:01;;;;;;;;;;;-2.10;99.90;;;;;;5054395;28;20280;-65
2023/01/29 07:13:28;;;;;;;45.17;23.67;;;-2.10;99.90;;;;;;5050460;28;21025;-66
2023/01/29 07:16:03;;;;;;;52.28;24.35;;;-2.10;99.90;;;;;;5052539;28;20794;-54
2023/01/29 07:18:30;;;;;;;46.40;23.40;;;-2.10;99.90;;;;;;5053036;28;20059;-58
2023/01/29 07:20:57;;;;;;;42.90;22.75;;;-2.10;99.90;;;;;;5050444;28;20058;-57
2023/01/29 07:23:24;;;;;;;43.17;22.35;;;-2.00;99.90;;;;;;5047626;28;20473;-58
2023/01/29 07:25:51;;;;;;;;;;;-2.00;99.90;;;;;;5050558;28;20059;-59
2023/01/29 07:28:19;;;;;;;51.85;25.85;;;-2.00;99.90;;;;;;5050646;28;20399;-58
2023/01/29 07:30:46;;;;;;;46.30;23.00;;;-2.00;99.90;;;;;;5051025;28;20499;-57
2023/01/29 07:33:13;;;;;;;52.38;25.50;;;-2.00;99.90;;;;;;5053319;28;20050;-54
2023/01/29 07:35:41;;;;;;;52.85;26.60;;;-2.00;99.90;;;;;;5032253;28;20249;-56
2023/01/29 07:38:10;;;;;;;51.45;25.83;;;-2.00;99.90;;;;;;5050893;28;20747;-52
2023/01/29 07:40:36;;;;;;;47.38;24.27;;;-1.90;99.90;;;;;;5050255;28;20299;-59
2023/01/29 07:43:05;;;;;;;51.85;26.08;;;-1.90;99.90;;;;;;5054109;28;20123;-52
2023/01/29 07:45:35;;;;;;;49.65;25.25;;;-1.90;99.90;;;;;;5045966;28;20048;-58
2023/01/29 07:48:05;;;;;;;47.88;24.38;;;-1.90;99.90;;;;;;5050334;28;20639;-54
2023/01/29 07:50:34;;;;;;;52.50;26.70;;;-1.80;99.90;;;;;;5048475;28;20519;-55
2023/01/29 07:53:01;;;;;;;48.42;25.58;;;-1.80;99.90;;;;;;5049043;28;20550;-55
2023/01/29 07:55:28;;;;;;;46.33;24.35;;;-1.70;99.90;;;;;;5052060;28;20111;-57
2023/01/29 07:58:03;;;;;;;45.25;23.63;;;-1.70;99.90;;;;;;5033465;28;20151;-55
2023/01/29 08:00:31;;;;;;;51.63;25.83;;;-1.60;99.90;;;;;;5050094;28;20047;-58
2023/01/29 08:03:05;;;;;;;48.28;24.80;;;-1.60;99.90;;;;;;5049725;28;20044;-56
2023/01/29 08:05:32;;;;;;;44.45;23.42;;;-1.50;99.90;;;;;;5031507;28;20158;-57
2023/01/29 08:08:00;;;;;;;54.78;27.67;;;-1.40;99.90;;;;;;5045897;28;20040;-56
2023/01/29 08:10:38;;;;;;;55.40;27.45;;;-1.10;99.90;;;;;;5030263;28;20097;-55
2023/01/29 08:13:05;;;;;;;44.55;24.30;;;-0.70;99.90;;;;;;5047720;28;20476;-55
2023/01/29 08:15:33;;;;;;;50.75;26.45;;;-0.40;99.90;;;;;;5050303;28;20228;-54
2023/01/29 08:18:03;;;;;;;50.30;27.30;;;0.00;99.90;;;;;;5047534;28;20280;-56
2023/01/29 08:20:30;;;;;;;42.85;24.23;;;0.30;99.90;;;;;;5049996;28;20036;-54
2023/01/29 08:22:58;;;;;;;;;;;0.60;99.90;;;;;;5038989;28;20037;-58
2023/01/29 08:25:24;;;;;;;45.13;24.05;;;0.90;99.90;;;;;;5050303;28;20418;-57
2023/01/29 08:27:52;;;;;;;42.08;23.45;;;1.20;99.90;;;;;;5048689;28;20125;-57
2023/01/29 08:30:18;;;;;;;;;;;1.50;99.90;;;;;;5044240;28;20245;-57
2023/01/29 08:32:45;;;;;;;42.78;23.02;;;1.70;99.90;;;;;;5047976;28;20018;-56
2023/01/29 08:35:12;;;;;;;44.20;23.17;;;2.00;99.90;;;;;;5046297;28;20058;-57
2023/01/29 08:37:39;;;;;;;;;;;2.30;99.90;;;;;;5047455;28;20550;-55
2023/01/29 08:40:08;;;;;;;37.83;21.02;;;2.60;99.90;;;;;;5048879;28;19996;-58
2023/01/29 08:42:35;;;;;;;43.28;22.38;;;3.00;99.90;;;;;;5047635;28;20079;-58
2023/01/29 08:45:01;;;;;;;;;;;3.20;99.90;;;;;;5053451;28;20048;-58
2023/01/29 08:47:28;;;;;;;36.33;20.60;;;3.40;99.90;;;;;;5047098;28;20277;-58
2023/01/29 08:49:55;;;;;;;37.83;21.55;;;3.50;99.90;;;;;;5047815;28;20386;-55
2023/01/29 08:52:21;;;;;;;33.65;19.95;;;3.80;99.90;;;;;;5047915;28;20546;-57
2023/01/29 08:54:48;;;;;;;37.85;21.58;;;3.90;99.90;;;;;;5046783;28;20599;-55
2023/01/29 08:57:15;;;;;;;38.10;21.90;;;4.00;99.90;;;;;;5051999;28;20055;-54
2023/01/29 08:59:42;;;;;;;39.33;20.42;;;4.20;99.80;;;;;;5049624;28;20491;-55
2023/01/29 09:02:09;;;;;;;;;;;4.40;99.40;;;;;;5048079;28;20090;-55
2023/01/29 09:04:36;;;;;;;35.33;19.58;;;4.60;97.40;;;;;;5048086;28;19950;-58
2023/01/29 09:07:03;;;;;;;;;;;4.80;96.90;;;;;;5053132;28;20136;-54
2023/01/29 09:09:29;;;;;;;33.30;19.77;;;5.10;95.30;;;;;;5043304;28;19947;-54
2023/01/29 09:11:56;;;;;;;31.45;19.48;;;5.20;93.90;;;;;;5048746;28;20631;-58
2023/01/29 09:14:23;;;;;;;;;;;5.40;91.90;;;;;;5047548;28;20565;-56
2023/01/29 09:16:49;;;;;;;37.17;20.90;;;5.40;90.40;;;;;;5050415;28;20394;-64
2023/01/29 09:19:16;;;;;;;;;;;5.30;91.00;;;;;;5048434;28;20787;-57
2023/01/29 09:21:43;;;;;;;33.67;19.98;;;5.30;91.30;;;;;;5048602;28;19958;-59
2023/01/29 09:24:09;;;;;;;;;;;5.10;99.90;;;;;;5051663;28;20044;-56
2023/01/29 09:26:38;;;;;;;35.95;19.95;;;5.00;97.30;;;;;;5055587;28;19967;-56
2023/01/29 09:29:05;;;;;;;41.40;22.98;;;4.80;93.60;;;;;;5042723;28;20287;-56
2023/01/29 09:31:32;;;;;;;37.33;21.77;;;4.40;92.90;;;;;;5051439;28;20050;-56
2023/01/29 09:33:59;;;;;;;41.42;23.23;;;4.00;95.20;;;;;;5054165;28;20070;-56
2023/01/29 09:36:26;;;;;;;;;;;3.70;96.50;;;;;;5054033;28;20098;-55
2023/01/29 09:38:52;;;;;;;37.92;21.98;;;3.50;96.70;;;;;;5053171;28;19924;-59
2023/01/29 09:41:54;;;;;;;41.63;24.15;;;3.10;97.70;;;;;;5052497;28;20136;-59
2023/01/29 09:45:00;;;;;;;37.33;22.02;;;2.80;99.50;;;;;;5052034;28;20076;-56
2023/01/29 09:47:28;;;;;;;39.55;23.13;;;2.60;99.90;;;;;;5054550;28;20044;-54
2023/01/29 09:50:05;;;;;;;37.15;21.27;;;2.40;99.90;;;;;;5050492;28;20135;-56
2023/01/29 09:52:38;;;;;;;;;;;2.10;99.90;;;;;;5051867;28;20059;-55
2023/01/29 09:55:16;;;;;;;40.80;23.00;;;2.00;99.90;;;;;;5052125;28;20434;-56
2023/01/29 09:57:53;;;;;;;41.95;23.27;;;1.80;99.90;;;;;;5049440;28;20251;-55
2023/01/29 10:00:36;;;;;;;46.53;24.67;;;1.60;99.90;;;;;;5050311;28;20251;-57
2023/01/29 10:03:10;;;;;;;40.50;22.25;;;1.50;99.90;;;;;;5050819;28;20554;-57
2023/01/29 10:05:52;;;;;;;43.75;24.13;;;1.40;99.90;;;;;;5050778;28;20079;-56
2023/01/29 10:08:29;;;;;;;42.67;23.23;;;1.30;99.90;;;;;;5049553;28;20779;-57
2023/01/29 10:11:17;;;;;;;51.22;25.67;;;1.30;99.90;;;;;;5030115;28;20067;-54
2023/01/29 10:13:52;;;;;;;;;;;1.20;99.90;;;;;;5049787;28;20037;-56
2023/01/29 10:16:48;;;;;;;47.05;24.60;;;1.10;99.90;;;;;;5051506;28;20344;-55
2023/01/29 10:19:55;;;;;;;37.60;20.65;;;1.00;99.90;;;;;;5047099;28;20087;-55
2023/01/29 10:22:41;;;;;;;43.17;24.85;;;1.00;99.90;;;;;;5015471;28;20425;-55
2023/01/29 10:25:16;;;;;;;40.55;23.10;;;1.00;99.90;;;;;;5046807;28;20351;-55
2023/01/29 10:27:50;;;;;;;43.83;23.85;;;1.00;99.90;;;;;;5046779;28;20248;-56
2023/01/29 10:30:37;;;;;;;45.88;26.20;;;1.10;99.90;;;;;;5050561;28;20059;-57
2023/01/29 10:33:08;;;;;;;44.70;24.58;;;1.10;99.90;;;;;;5053201;28;20115;-54
2023/01/29 10:35:40;;;;;;;49.83;27.20;;;1.20;99.90;;;;;;5049011;28;20054;-55
2023/01/29 10:38:22;;;;;;;44.90;23.52;;;1.20;99.90;;;;;;5051978;28;20184;-59
2023/01/29 10:41:06;;;;;;;42.70;24.08;;;1.30;99.90;;;;;;5049365;28;20285;-60
2023/01/29 10:44:10;;;;;;;37.05;21.30;;;1.30;99.90;;;;;;5050313;28;20068;-59
2023/01/29 10:47:10;;;;;;;39.28;21.80;;;1.30;99.90;;;;;;5049146;28;20047;-57
2023/01/29 10:49:40;;;;;;;40.35;22.58;;;1.40;99.90;;;;;;5029245;28;20441;-57
2023/01/29 10:52:27;;;;;;;37.95;21.42;;;1.40;99.90;;;;;;5050527;28;20303;-57
2023/01/29 10:55:15;;;;;;;37.10;20.60;;;1.40;99.90;;;;;;5048471;28;20044;-56
2023/01/29 10:58:07;;;;;;;40.60;21.45;;;1.40;99.90;;;;;;5050969;28;20177;-57
2023/01/29 11:00:40;;;;;;;37.35;20.70;;;1.30;99.90;;;;;;5049554;28;20037;-59
2023/01/29 11:03:18;;;;;;;40.28;22.80;;;1.30;99.90;;;;;;5050085;28;20538;-59
2023/01/29 11:06:20;;;;;;;36.20;22.38;;;1.20;99.90;;;;;;5049195;28;20056;-58
2023/01/29 11:09:15;;;;;;;39.97;22.67;;;1.00;99.90;;;;;;5047382;28;20363;-57
2023/01/29 11:12:05;;;;;;;40.60;22.20;;;0.90;99.90;;;;;;5046529;28;20155;-57
2023/01/29 11:14:57;;;;;;;41.17;22.13;;;0.90;99.90;;;;;;5034421;28;20060;-58
2023/01/29 11:17:25;;;;;;;42.60;21.80;;;0.80;99.90;;;;;;5049399;28;20122;-56
2023/01/29 11:19:56;;;;;;;41.10;22.67;;;0.80;99.90;;;;;;5032238;28;20046;-60
2023/01/29 11:22:28;;;;;;;40.83;22.48;;;0.80;99.90;;;;;;5050501;28;20344;-56
2023/01/29 11:25:16;;;;;;;35.95;21.05;;;0.70;99.90;;;;;;5051439;28;20052;-58
2023/01/29 11:27:46;;;;;;;39.28;21.02;;;0.70;99.90;;;;;;5049064;28;20040;-58
2023/01/29 11:30:37;;;;;;;41.33;21.60;;;0.70;99.90;;;;;;5050024;28;20075;-61
2023/01/29 11:33:30;;;;;;;46.90;22.55;;;0.80;99.90;;;;;;5050594;28;20173;-58
2023/01/29 11:35:57;;;;;;;39.42;22.35;;;0.80;99.90;;;;;;5033682;28;20146;-58
2023/01/29 11:38:27;;;;;;;39.45;22.15;;;0.90;99.90;;;;;;5047915;28;20127;-61
2023/01/29 11:41:16;;;;;;;40.33;21.48;;;0.90;99.90;;;;;;5050747;28;20428;-57
2023/01/29 11:43:43;;;;;;;46.30;23.42;;;1.00;99.90;;;;;;5049294;28;20219;-58
2023/01/29 11:46:13;;;;;;;40.22;22.90;;;0.90;99.90;;;;;;5050450;28;20586;-60
2023/01/29 11:48:43;;;;;;;43.78;23.33;;;1.00;99.90;;;;;;5047757;28;20044;-57
2023/01/29 11:51:20;;;;;;;44.90;24.05;;;1.00;99.90;;;;;;5047805;28;20283;-57
2023/01/29 11:54:02;;;;;;;40.17;22.45;;;1.00;99.90;;;;;;5049196;28;20118;-57
2023/01/29 11:56:44;;;;;;;38.97;22.02;;;1.00;99.90;;;;;;5048904;28;20340;-56
2023/01/29 11:59:48;;;;;;;42.70;22.50;;;1.00;99.90;;;;;;5046988;28;20503;-58
2023/01/29 12:02:46;;;;;;;44.55;24.85;;;0.90;99.90;;;;;;5048873;28;20041;-58
2023/01/29 12:05:18;;;;;;;37.38;20.40;;;0.90;99.90;;;;;;5026007;28;20335;-59
2023/01/29 12:07:50;;;;;;;40.42;22.77;;;0.90;99.90;;;;;;5048535;28;20048;-59
2023/01/29 12:10:32;;;;;;;44.00;23.88;;;0.80;99.90;;;;;;5046893;28;20421;-59
2023/01/29 12:13:26;;;;;;;45.03;23.52;;;0.80;99.90;;;;;;5045401;28;20046;-56
2023/01/29 12:16:15;;;;;;;50.50;24.80;;;0.70;99.90;;;;;;5048363;28;20130;-58
2023/01/29 12:18:49;;;;;;;44.25;23.60;;;0.70;99.90;;;;;;5049049;28;20046;-59
2023/01/29 12:21:48;;;;;;;36.92;20.63;;;0.60;99.90;;;;;;5049168;28;20196;-57
2023/01/29 12:24:29;;;;;;;;;;;0.70;99.90;;;;;;5031866;28;20586;-56
2023/01/29 12:27:21;;;;;;;46.05;23.90;;;0.70;99.90;;;;;;5044768;28;19924;-57
2023/01/29 12:30:05;;;;;;;45.95;22.80;;;0.70;99.90;;;;;;5048265;28;20068;-55
2023/01/29 12:32:58;;;;;;;42.35;22.58;;;0.60;99.90;;;;;;5046883;28;20049;-56
2023/01/29 12:35:36;;;;;;;43.47;21.88;;;0.60;99.90;;;;;;5045757;28;20102;-56
2023/01/29 12:38:22;;;;;;;43.08;22.63;;;0.50;99.90;;;;;;5045814;28;20051;-56
2023/01/29 12:40:57;;;;;;;44.80;24.67;;;0.50;99.90;;;;;;5049163;28;20385;-63
2023/01/29 12:43:34;;;;;;;45.30;23.92;;;0.50;99.90;;;;;;5046023;28;20040;-62
2023/01/29 12:46:05;;;;;;;42.90;23.85;;;0.50;99.90;;;;;;5037330;28;20055;-56
2023/01/29 12:48:35;;;;;;;44.05;22.27;;;0.50;99.90;;;;;;5047757;28;20056;-61
2023/01/29 12:51:18;;;;;;;41.92;21.45;;;0.50;99.90;;;;;;5047203;28;20450;-61
2023/01/29 12:54:06;;;;;;;42.22;22.48;;;0.50;99.90;;;;;;5049349;28;20307;-62
2023/01/29 12:56:45;;;;;;;42.08;23.63;;;0.60;99.90;;;;;;5048592;28;20993;-60
2023/01/29 12:59:29;;;;;;;47.65;22.02;;;0.60;99.90;;;;;;5046455;28;20136;-59
2023/01/29 13:02:19;;;;;;;36.53;19.48;;;0.60;99.90;;;;;;5046603;28;20281;-57
2023/01/29 13:05:03;;;;;;;40.58;20.85;;;0.60;99.90;;;;;;5048861;28;20121;-61
2023/01/29 13:07:37;;;;;;;46.78;23.70;;;0.60;99.90;;;;;;5031606;28;20264;-60
2023/01/29 13:10:12;;;;;;;39.55;21.27;;;0.60;99.90;;;;;;5051647;28;20587;-64
2023/01/29 13:12:45;;;;;;;37.40;20.95;;;0.70;99.90;;;;;;5048934;28;20423;-58
2023/01/29 13:15:23;;;;;;;39.08;21.67;;;0.70;99.90;;;;;;5031637;28;20990;-57
2023/01/29 13:17:54;;;;;;;41.67;22.83;;;0.80;99.90;;;;;;5049622;28;20068;-58
2023/01/29 13:20:31;;;;;;;40.42;21.70;;;0.80;99.90;;;;;;5034513;28;20276;-58
2023/01/29 13:23:11;;;;;;;39.38;21.33;;;0.70;99.90;;;;;;5052460;28;20440;-55
2023/01/29 13:25:38;;;;;;;34.92;20.35;;;0.60;99.90;;;;;;5031573;28;20499;-57
2023/01/29 13:28:04;;;;;;;;;;;0.50;99.90;;;;;;5053418;28;20374;-56
2023/01/29 13:30:35;;;;;;;37.33;21.20;;;0.50;99.90;;;;;;5047530;28;19928;-55
2023/01/29 13:33:07;;;;;;;39.38;19.95;;;0.60;99.90;;;;;;5052178;28;20047;-56
2023/01/29 13:35:38;;;;;;;37.88;20.85;;;0.60;99.90;;;;;;5030891;28;20048;-56
2023/01/29 13:38:19;;;;;;;36.30;20.90;;;0.60;99.90;;;;;;5051217;28;20239;-56
2023/01/29 13:40:50;;;;;;;38.47;21.75;;;0.60;99.90;;;;;;5052548;28;20036;-57
2023/01/29 13:43:22;;;;;;;40.72;22.83;;;0.60;99.90;;;;;;5050509;28;20506;-56
2023/01/29 13:45:51;;;;;;;41.72;23.42;;;0.50;99.90;;;;;;5049262;28;20044;-58
2023/01/29 13:48:26;;;;;;;40.55;22.60;;;0.50;99.90;;;;;;5049445;28;20040;-56
2023/01/29 13:50:54;;;;;;;45.72;23.65;;;0.40;99.90;;;;;;5051186;28;20053;-57
2023/01/29 13:53:23;;;;;;;45.03;23.30;;;0.30;99.90;;;;;;5051428;28;20036;-56
2023/01/29 13:55:49;;;;;;;40.08;21.40;;;0.30;99.90;;;;;;5052182;28;20471;-57